Time;durP1;ratioP1;P1;durP2;ratioP2;P2;SDS_P1;SDS_P2;PMS_P1;PMS_P2;Temp;Humidity;BMP_temperature;BMP_pressure;BME280_temperature;BME280_humidity;BME280_pressure;Samples;Min_cycle;Max_cycle;Signal;HPM_P1;HPM_P2
2023/05/23 00:02:15;;;;;;;9.95;5.80;;;24.00;50.60;;;;;;6127030;28;80560;-59
2023/05/23 00:05:16;;;;;;;9.45;5.85;;;24.00;50.60;;;;;;6126560;28;81065;-60
2023/05/23 00:08:17;;;;;;;10.43;6.80;;;23.90;50.50;;;;;;6123420;28;81154;-59
2023/05/23 00:11:19;;;;;;;9.10;6.22;;;24.00;50.60;;;;;;6127005;28;83614;-58
2023/05/23 00:14:19;;;;;;;10.50;6.00;;;24.00;50.60;;;;;;6127060;28;80207;-58
2023/05/23 00:17:20;;;;;;;10.73;5.78;;;24.00;50.50;;;;;;6127038;28;81149;-58
2023/05/23 00:20:21;;;;;;;9.25;6.45;;;24.00;50.40;;;;;;6127316;28;80663;-59
2023/05/23 00:23:24;;;;;;;9.80;5.82;;;24.00;50.40;;;;;;6129830;28;80790;-58
2023/05/23 00:26:24;;;;;;;8.57;6.10;;;24.00;50.40;;;;;;6108422;28;80443;-57
2023/05/23 00:29:25;;;;;;;9.32;6.30;;;24.00;50.40;;;;;;6108585;28;80602;-59
2023/05/23 00:32:25;;;;;;;11.90;6.10;;;24.00;50.30;;;;;;6124765;28;81525;-58
2023/05/23 00:35:26;;;;;;;8.98;5.47;;;24.00;50.40;;;;;;6122681;28;81532;-57
2023/05/23 00:38:27;;;;;;;8.23;5.82;;;24.00;50.40;;;;;;6111624;28;80372;-60
2023/05/23 00:41:29;;;;;;;17.20;5.65;;;24.00;50.30;;;;;;6107577;28;81621;-59
2023/05/23 00:44:31;;;;;;;9.38;5.28;;;24.00;50.30;;;;;;6123436;28;82358;-61
2023/05/23 00:47:31;;;;;;;7.63;5.45;;;23.90;50.20;;;;;;6107728;28;81502;-60
2023/05/23 00:50:32;;;;;;;9.73;5.95;;;24.00;50.30;;;;;;6150823;28;81650;-62
2023/05/23 00:53:33;;;;;;;7.72;5.45;;;24.00;50.30;;;;;;6125570;28;81573;-61
2023/05/23 00:56:33;;;;;;;8.88;5.70;;;24.00;50.30;;;;;;6118011;28;80848;-62
2023/05/23 00:59:34;;;;;;;8.38;5.25;;;24.00;50.20;;;;;;6128857;28;80079;-62
2023/05/23 01:02:35;;;;;;;9.30;5.72;;;24.00;50.20;;;;;;6118802;28;80240;-61
2023/05/23 01:05:35;;;;;;;8.50;5.72;;;24.00;50.20;;;;;;6129459;28;80222;-63
2023/05/23 01:08:36;;;;;;;10.73;6.20;;;24.00;50.20;;;;;;6120986;28;82231;-62
2023/05/23 01:11:37;;;;;;;11.77;5.60;;;24.00;50.20;;;;;;6145896;28;81818;-61
2023/05/23 01:14:37;;;;;;;9.60;5.65;;;24.00;50.20;;;;;;6123676;28;80726;-62
2023/05/23 01:17:40;;;;;;;7.75;5.82;;;23.90;50.20;;;;;;6120082;28;80380;-63
2023/05/23 01:20:41;;;;;;;8.43;6.10;;;23.90;50.20;;;;;;6124332;28;82992;-62
2023/05/23 01:23:41;;;;;;;9.80;5.47;;;23.90;50.20;;;;;;6121960;28;82614;-62
2023/05/23 01:26:42;;;;;;;8.55;5.57;;;23.90;50.20;;;;;;6108161;28;81132;-62
2023/05/23 01:29:43;;;;;;;10.77;6.13;;;23.90;50.20;;;;;;6110278;28;83673;-62
2023/05/23 01:32:44;;;;;;;8.95;5.57;;;23.90;50.20;;;;;;6128634;28;81525;-58
2023/05/23 01:35:44;;;;;;;7.38;4.95;;;23.90;50.20;;;;;;6130330;28;80974;-58
2023/05/23 01:38:45;;;;;;;8.45;5.30;;;23.90;50.20;;;;;;6126150;28;80635;-58
2023/05/23 01:41:45;;;;;;;8.50;5.57;;;23.90;50.30;;;;;;6128193;28;83469;-58
2023/05/23 01:44:46;;;;;;;10.27;5.07;;;23.90;50.20;;;;;;6127365;28;83288;-58
2023/05/23 01:47:46;;;;;;;7.20;5.28;;;23.90;50.30;;;;;;6121222;28;80604;-58
2023/05/23 01:50:47;;;;;;;9.25;5.85;;;23.90;50.30;;;;;;6126752;28;83620;-58
2023/05/23 01:53:48;;;;;;;10.10;5.40;;;23.90;50.20;;;;;;6127279;28;82928;-58
2023/05/23 01:56:49;;;;;;;9.77;5.82;;;23.90;50.20;;;;;;6127992;28;83216;-58
2023/05/23 01:59:50;;;;;;;12.55;6.13;;;23.90;50.20;;;;;;6139550;28;81836;-58
2023/05/23 02:02:50;;;;;;;8.18;5.70;;;23.90;50.20;;;;;;6127502;28;82832;-58
2023/05/23 02:05:51;;;;;;;8.65;5.68;;;23.90;50.20;;;;;;6120897;28;80537;-57
2023/05/23 02:08:52;;;;;;;9.07;5.53;;;23.90;50.20;;;;;;6122119;28;80483;-57
2023/05/23 02:11:53;;;;;;;6.00;4.93;;;23.90;50.30;;;;;;6114455;28;81076;-60
2023/05/23 02:14:54;;;;;;;9.63;5.38;;;23.90;50.30;;;;;;6106975;28;80451;-57
2023/05/23 02:17:54;;;;;;;9.55;5.72;;;23.90;50.30;;;;;;6137371;28;82987;-56
2023/05/23 02:20:55;;;;;;;7.30;5.05;;;23.90;50.30;;;;;;6110131;28;80562;-58
2023/05/23 02:23:55;;;;;;;7.43;5.40;;;23.90;50.30;;;;;;6120959;28;81929;-60
2023/05/23 02:26:56;;;;;;;8.15;5.82;;;23.90;50.40;;;;;;6112709;28;80399;-57
2023/05/23 02:29:56;;;;;;;8.82;5.75;;;23.90;50.30;;;;;;6116618;28;80864;-58
2023/05/23 02:32:57;;;;;;;6.82;5.32;;;23.90;50.30;;;;;;6119966;28;83307;-58
2023/05/23 02:35:58;;;;;;;7.22;5.13;;;23.90;50.20;;;;;;6124735;28;82522;-58
2023/05/23 02:38:59;;;;;;;11.27;5.57;;;23.90;50.20;;;;;;6105963;28;80389;-58
2023/05/23 02:42:00;;;;;;;13.13;5.35;;;23.90;50.20;;;;;;6119094;28;80851;-57
2023/05/23 02:45:01;;;;;;;9.35;5.90;;;23.90;50.20;;;;;;6136486;28;82658;-58
2023/05/23 02:48:02;;;;;;;8.07;5.28;;;23.90;50.30;;;;;;6104513;28;80559;-59
2023/05/23 02:51:02;;;;;;;7.82;5.85;;;23.90;50.20;;;;;;6123111;28;83477;-59
2023/05/23 02:54:03;;;;;;;7.60;5.18;;;23.90;50.20;;;;;;6119395;28;82921;-58
2023/05/23 02:57:05;;;;;;;9.32;5.57;;;23.90;50.20;;;;;;6120196;28;80537;-58
2023/05/23 03:00:10;;;;;;;7.70;5.43;;;23.90;50.20;;;;;;6136989;28;83267;-58
2023/05/23 03:03:11;;;;;;;8.50;5.30;;;23.90;50.20;;;;;;6149072;28;83136;-56
2023/05/23 03:06:13;;;;;;;6.63;5.30;;;23.90;50.20;;;;;;6119714;28;80300;-58
2023/05/23 03:09:14;;;;;;;8.43;5.55;;;23.90;50.20;;;;;;6131830;28;83745;-58
2023/05/23 03:12:14;;;;;;;8.38;5.28;;;23.90;50.10;;;;;;6110086;28;83551;-58
2023/05/23 03:15:15;;;;;;;7.57;5.05;;;23.90;50.20;;;;;;6119077;28;83703;-58
2023/05/23 03:18:17;;;;;;;7.45;4.68;;;23.80;50.10;;;;;;6123042;28;83279;-58
2023/05/23 03:21:18;;;;;;;7.18;5.53;;;23.90;50.00;;;;;;6118688;28;82875;-60
2023/05/23 03:24:19;;;;;;;8.38;5.80;;;23.80;50.00;;;;;;6123607;28;83246;-58
2023/05/23 03:27:19;;;;;;;7.88;4.95;;;23.90;50.10;;;;;;6127738;28;80815;-58
2023/05/23 03:30:20;;;;;;;6.57;5.00;;;23.90;50.00;;;;;;6123096;28;84164;-59
2023/05/23 03:33:20;;;;;;;7.00;5.38;;;23.90;50.20;;;;;;6125480;28;83668;-59
2023/05/23 03:36:24;;;;;;;8.90;5.68;;;23.90;50.10;;;;;;6118506;28;80602;-59
2023/05/23 03:39:25;;;;;;;8.00;5.50;;;23.90;50.10;;;;;;6154219;28;82866;-59
2023/05/23 03:42:26;;;;;;;7.78;5.25;;;23.90;50.10;;;;;;6121792;28;83347;-54
2023/05/23 03:45:26;;;;;;;8.32;6.00;;;23.90;50.00;;;;;;6119027;28;80949;-52
2023/05/23 03:48:29;;;;;;;10.98;6.78;;;23.80;50.00;;;;;;6121794;28;80290;-52
2023/05/23 03:51:30;;;;;;;9.20;5.68;;;23.80;50.10;;;;;;6126612;28;83353;-55
2023/05/23 03:54:32;;;;;;;9.32;5.97;;;23.80;50.10;;;;;;6128753;28;82039;-54
2023/05/23 03:57:32;;;;;;;11.70;7.03;;;23.80;50.10;;;;;;6124115;28;87478;-55
2023/05/23 04:00:33;;;;;;;10.95;5.95;;;23.90;50.10;;;;;;6093492;28;83510;-66
2023/05/23 04:03:36;;;;;;;9.38;6.15;;;23.90;50.10;;;;;;6092138;28;83276;-61
2023/05/23 04:06:37;;;;;;;11.07;6.30;;;23.80;50.40;;;;;;6102857;28;82719;-64
2023/05/23 04:09:38;;;;;;;13.27;6.10;;;23.80;50.40;;;;;;6086073;28;81852;-67
2023/05/23 04:12:42;;;;;;;9.45;6.35;;;23.80;50.50;;;;;;6088688;28;82767;-63
2023/05/23 04:15:47;;;;;;;10.23;5.65;;;23.80;50.50;;;;;;6084164;28;81853;-69
2023/05/23 04:18:48;;;;;;;18.40;6.63;;;23.80;50.80;;;;;;6091884;28;83138;-67
2023/05/23 04:21:49;;;;;;;11.55;5.72;;;23.80;50.90;;;;;;6130227;28;82949;-68
2023/05/23 04:24:51;;;;;;;20.27;5.53;;;23.90;51.10;;;;;;6129594;28;83308;-68
2023/05/23 04:27:54;;;;;;;12.75;5.95;;;23.90;51.70;;;;;;6120271;28;84318;-71
2023/05/23 04:30:57;;;;;;;8.65;4.70;;;23.90;50.80;;;;;;6141565;28;82981;-66
2023/05/23 04:34:01;;;;;;;19.80;6.43;;;23.90;51.30;;;;;;6117060;28;82942;-63
2023/05/23 04:37:02;;;;;;;10.77;5.47;;;23.90;51.30;;;;;;6126839;28;87240;-66
2023/05/23 04:40:04;;;;;;;12.48;5.53;;;23.90;51.40;;;;;;6105550;28;83531;-66
2023/05/23 04:43:32;;;;;;;12.60;5.68;;;23.90;51.40;;;;;;6083793;28;81760;-68
2023/05/23 04:46:46;;;;;;;12.00;5.82;;;23.90;51.50;;;;;;6080297;28;82254;-68
2023/05/23 04:49:52;;;;;;;11.05;6.07;;;23.90;51.00;;;;;;6105121;28;83517;-68
2023/05/23 04:52:53;;;;;;;17.40;6.32;;;23.80;50.70;;;;;;6115905;28;83074;-68
2023/05/23 04:55:53;;;;;;;14.77;6.68;;;23.80;50.40;;;;;;6099387;28;83176;-68
2023/05/23 04:58:54;;;;;;;12.23;6.68;;;23.80;50.10;;;;;;6142202;28;83321;-69
2023/05/23 05:01:56;;;;;;;12.68;6.53;;;23.80;49.60;;;;;;6115209;28;81671;-68
2023/05/23 05:04:56;;;;;;;11.52;6.60;;;23.80;49.30;;;;;;6126215;28;83090;-68
2023/05/23 05:07:58;;;;;;;16.38;6.70;;;23.70;49.10;;;;;;6142221;28;83314;-66
2023/05/23 05:10:58;;;;;;;9.18;6.47;;;23.70;49.20;;;;;;6125913;28;81589;-66
2023/05/23 05:13:59;;;;;;;16.45;6.53;;;23.70;48.90;;;;;;6134251;28;83878;-71
2023/05/23 05:17:01;;;;;;;13.10;6.78;;;23.70;48.70;;;;;;6137313;28;83521;-71
2023/05/23 05:20:09;;;;;;;10.32;6.72;;;23.70;48.50;;;;;;6166533;28;80744;-70
2023/05/23 05:23:11;;;;;;;11.32;6.60;;;23.70;48.60;;;;;;6159617;28;82919;-69
2023/05/23 05:26:12;;;;;;;9.95;7.03;;;23.70;48.50;;;;;;6128421;28;83822;-69
2023/05/23 05:29:12;;;;;;;12.48;6.45;;;23.70;48.50;;;;;;6130079;28;83286;-70
2023/05/23 05:32:13;;;;;;;11.73;7.10;;;23.70;49.00;;;;;;6120185;28;85416;-66
2023/05/23 05:35:14;;;;;;;10.25;6.00;;;23.70;48.30;;;;;;6138001;28;83362;-67
2023/05/23 05:38:16;;;;;;;10.65;6.75;;;23.70;48.40;;;;;;6128475;28;82746;-67
2023/05/23 05:41:17;;;;;;;12.52;7.70;;;23.70;48.40;;;;;;6129383;28;80921;-67
2023/05/23 05:44:23;;;;;;;13.98;6.57;;;23.70;48.30;;;;;;6121549;28;83443;-67
2023/05/23 05:47:24;;;;;;;11.52;6.90;;;23.70;48.20;;;;;;6110051;28;80773;-66
2023/05/23 05:50:25;;;;;;;11.15;6.45;;;23.70;48.10;;;;;;6138314;28;82267;-63
2023/05/23 05:53:26;;;;;;;9.48;6.25;;;23.70;48.40;;;;;;6121778;28;82810;-62
2023/05/23 05:56:27;;;;;;;10.57;6.53;;;23.70;48.30;;;;;;6121355;28;83325;-62
2023/05/23 05:59:28;;;;;;;13.48;6.47;;;23.70;48.20;;;;;;6150832;28;83665;-62
2023/05/23 06:02:29;;;;;;;10.52;6.22;;;23.70;48.40;;;;;;6116939;28;83201;-62
2023/05/23 06:05:29;;;;;;;10.63;6.30;;;23.70;48.40;;;;;;6132493;28;83591;-62
2023/05/23 06:08:30;;;;;;;11.82;6.18;;;23.70;48.40;;;;;;6160614;28;83139;-60
2023/05/23 06:11:31;;;;;;;11.35;6.25;;;23.70;48.60;;;;;;6120267;28;83626;-60
2023/05/23 06:14:31;;;;;;;12.43;6.32;;;23.70;48.60;;;;;;6127693;28;81868;-60
2023/05/23 06:17:32;;;;;;;11.32;6.28;;;23.70;48.60;;;;;;6129608;28;80205;-60
2023/05/23 06:20:32;;;;;;;10.52;6.22;;;23.70;48.70;;;;;;6127173;28;82272;-60
2023/05/23 06:23:36;;;;;;;9.75;5.95;;;23.70;48.70;;;;;;6127476;28;83099;-61
2023/05/23 06:26:37;;;;;;;10.00;5.70;;;23.70;48.80;;;;;;6119906;28;82138;-59
2023/05/23 06:29:38;;;;;;;8.52;6.00;;;23.70;48.80;;;;;;6107675;28;80603;-61
2023/05/23 06:32:38;;;;;;;12.45;5.95;;;23.70;48.80;;;;;;6115537;28;81097;-60
2023/05/23 06:35:39;;;;;;;15.35;6.88;;;23.70;48.80;;;;;;6124100;28;83461;-61
2023/05/23 06:38:40;;;;;;;8.85;6.07;;;23.80;48.70;;;;;;6119220;28;83735;-60
2023/05/23 06:41:40;;;;;;;12.00;6.28;;;23.70;48.50;;;;;;6137152;28;81233;-60
2023/05/23 06:44:41;;;;;;;15.90;6.22;;;23.70;48.80;;;;;;6120868;28;83545;-60
2023/05/23 06:47:44;;;;;;;11.00;6.20;;;23.80;48.80;;;;;;6123649;28;89868;-61
2023/05/23 06:50:45;;;;;;;9.13;5.82;;;23.80;48.60;;;;;;6121403;28;83141;-61
2023/05/23 06:53:46;;;;;;;9.95;5.68;;;23.80;48.60;;;;;;6105380;28;80445;-61
2023/05/23 06:56:46;;;;;;;16.35;5.70;;;23.80;48.60;;;;;;6122600;28;80830;-62
2023/05/23 06:59:48;;;;;;;7.38;5.72;;;23.80;48.70;;;;;;6126320;28;83571;-61
2023/05/23 07:02:49;;;;;;;12.63;5.75;;;23.80;48.50;;;;;;6119784;28;84076;-60
2023/05/23 07:05:53;;;;;;;10.68;5.85;;;23.80;48.50;;;;;;6138035;28;82750;-61
2023/05/23 07:08:56;;;;;;;9.38;6.32;;;23.80;48.50;;;;;;6120781;28;80470;-60
2023/05/23 07:11:57;;;;;;;9.55;6.38;;;23.80;48.60;;;;;;6122297;28;81613;-61
2023/05/23 07:14:59;;;;;;;10.20;6.18;;;23.80;48.60;;;;;;6126123;28;81838;-62
2023/05/23 07:18:00;;;;;;;10.85;6.05;;;23.80;48.60;;;;;;6126689;28;82881;-59
2023/05/23 07:21:01;;;;;;;10.43;6.32;;;23.80;48.60;;;;;;6159903;28;83290;-62
2023/05/23 07:24:02;;;;;;;7.78;5.68;;;23.80;48.60;;;;;;6126477;28;82775;-62
2023/05/23 07:27:04;;;;;;;10.05;6.10;;;23.80;48.60;;;;;;6126903;28;83392;-62
2023/05/23 07:30:05;;;;;;;10.95;5.88;;;23.80;48.60;;;;;;6138843;28;81322;-62
2023/05/23 07:33:06;;;;;;;8.57;5.88;;;23.90;48.70;;;;;;6124086;28;83321;-61
2023/05/23 07:36:08;;;;;;;8.40;5.57;;;23.90;48.70;;;;;;6122942;28;81784;-63
2023/05/23 07:39:09;;;;;;;8.63;5.70;;;23.90;48.70;;;;;;6125496;28;82828;-61
2023/05/23 07:42:10;;;;;;;8.88;6.07;;;23.90;48.80;;;;;;6141907;28;84021;-63
2023/05/23 07:45:11;;;;;;;7.72;5.35;;;23.90;48.90;;;;;;6127073;28;81482;-62
2023/05/23 07:48:15;;;;;;;8.35;5.75;;;23.90;48.90;;;;;;6151831;28;80546;-61
2023/05/23 07:51:20;;;;;;;8.73;5.78;;;24.00;49.00;;;;;;6126444;28;82273;-62
2023/05/23 07:54:21;;;;;;;13.27;5.80;;;24.00;49.00;;;;;;6126075;28;80647;-64
2023/05/23 07:57:26;;;;;;;9.07;5.55;;;23.90;49.00;;;;;;6124927;28;80431;-62
2023/05/23 08:00:27;;;;;;;8.57;5.70;;;24.00;49.00;;;;;;6126172;28;83147;-62
2023/05/23 08:03:36;;;;;;;12.10;5.53;;;24.00;49.10;;;;;;6125155;28;82872;-63
2023/05/23 08:06:46;;;;;;;11.30;5.97;;;24.00;49.00;;;;;;6159145;28;82683;-64
2023/05/23 08:09:46;;;;;;;11.75;5.90;;;24.00;49.00;;;;;;6125556;28;83204;-63
2023/05/23 08:12:50;;;;;;;9.60;5.50;;;24.00;48.90;;;;;;6125828;28;82777;-63
2023/05/23 08:15:52;;;;;;;11.52;6.40;;;24.00;49.00;;;;;;6126143;28;81991;-61
2023/05/23 08:18:57;;;;;;;12.95;5.90;;;24.00;49.00;;;;;;6137074;28;81448;-62
2023/05/23 08:21:58;;;;;;;9.18;5.53;;;24.00;49.00;;;;;;6118785;28;83770;-62
2023/05/23 08:24:58;;;;;;;12.00;5.75;;;24.00;49.00;;;;;;6118913;28;82841;-62
2023/05/23 08:28:01;;;;;;;12.00;6.15;;;24.00;49.00;;;;;;6122228;28;83596;-64
2023/05/23 08:31:26;;;;;;;13.95;6.07;;;24.00;49.10;;;;;;6114636;28;82675;-63
2023/05/23 08:34:27;;;;;;;10.65;5.60;;;24.10;49.20;;;;;;6117542;28;82290;-67
2023/05/23 08:37:28;;;;;;;9.95;5.72;;;24.10;49.20;;;;;;6103458;28;80483;-67
2023/05/23 08:40:28;;;;;;;9.00;5.43;;;24.10;49.20;;;;;;6116179;28;81004;-66
2023/05/23 08:43:36;;;;;;;13.50;5.90;;;24.10;49.20;;;;;;6108439;28;83693;-67
2023/05/23 08:46:37;;;;;;;8.23;6.13;;;24.10;49.80;;;;;;6125929;28;82193;-67
2023/05/23 08:49:37;;;;;;;13.93;5.55;;;24.10;49.20;;;;;;6106760;28;80350;-67
2023/05/23 08:52:38;;;;;;;9.40;5.55;;;24.10;49.10;;;;;;6108424;28;80936;-67
2023/05/23 08:55:38;;;;;;;15.60;6.30;;;24.10;49.00;;;;;;6110516;28;80468;-68
2023/05/23 08:58:40;;;;;;;13.38;5.82;;;24.10;48.80;;;;;;6128356;28;82806;-70
2023/05/23 09:01:42;;;;;;;9.20;5.85;;;24.10;48.60;;;;;;6143191;28;82660;-70
2023/05/23 09:04:45;;;;;;;10.38;5.47;;;24.10;48.50;;;;;;6124218;28;81743;-70
2023/05/23 09:07:53;;;;;;;10.80;6.30;;;24.20;48.70;;;;;;6135958;28;82994;-71
2023/05/23 09:10:54;;;;;;;14.43;5.82;;;24.20;48.60;;;;;;6109271;28;83014;-67
2023/05/23 09:13:56;;;;;;;10.45;5.93;;;24.20;48.50;;;;;;6141789;28;82638;-63
2023/05/23 09:16:57;;;;;;;8.75;5.25;;;24.20;48.50;;;;;;6113102;28;82841;-62
2023/05/23 09:19:59;;;;;;;11.35;5.10;;;24.20;48.30;;;;;;6122312;28;82289;-63
2023/05/23 09:23:17;;;;;;;10.35;4.90;;;24.20;48.30;;;;;;6139884;28;87833;-63
2023/05/23 09:26:18;;;;;;;7.78;4.85;;;24.20;48.20;;;;;;6126682;28;88280;-63
2023/05/23 09:29:18;;;;;;;9.95;5.22;;;24.20;48.30;;;;;;6130076;28;83737;-63
2023/05/23 09:32:19;;;;;;;9.27;5.15;;;24.30;48.20;;;;;;6129612;28;81300;-67
2023/05/23 09:35:19;;;;;;;10.00;5.38;;;24.30;48.30;;;;;;6130827;28;80107;-68
2023/05/23 09:38:20;;;;;;;9.48;5.00;;;24.30;48.20;;;;;;6128506;28;81999;-66
2023/05/23 09:41:20;;;;;;;8.55;4.95;;;24.30;48.00;;;;;;6127882;28;80258;-67
2023/05/23 09:44:21;;;;;;;7.68;5.18;;;24.30;47.90;;;;;;6128549;28;81708;-69
2023/05/23 09:47:21;;;;;;;6.22;4.22;;;24.30;47.80;;;;;;6120760;28;83330;-70
2023/05/23 09:50:22;;;;;;;11.38;4.25;;;24.30;47.60;;;;;;6128144;28;80278;-72
2023/05/23 09:53:23;;;;;;;7.22;4.28;;;24.30;47.40;;;;;;6136219;28;83706;-71
2023/05/23 09:56:23;;;;;;;8.23;4.82;;;24.30;47.30;;;;;;6126182;28;81185;-70
2023/05/23 09:59:24;;;;;;;9.88;4.60;;;24.30;47.30;;;;;;6128236;28;80219;-74
2023/05/23 10:02:24;;;;;;;8.07;4.47;;;24.40;47.30;;;;;;6130196;28;83432;-72
2023/05/23 10:05:25;;;;;;;9.18;4.38;;;24.40;47.20;;;;;;6128853;28;80439;-72
2023/05/23 10:08:26;;;;;;;10.20;5.25;;;24.40;47.20;;;;;;6116100;28;83225;-71
2023/05/23 10:11:26;;;;;;;8.65;4.70;;;24.40;47.20;;;;;;6119021;28;80567;-71
2023/05/23 10:14:27;;;;;;;6.88;4.50;;;24.40;47.10;;;;;;6116416;28;80773;-71
2023/05/23 10:17:27;;;;;;;8.35;4.07;;;24.40;47.00;;;;;;6129755;28;80477;-72
2023/05/23 10:20:28;;;;;;;10.07;4.50;;;24.40;46.90;;;;;;6127993;28;81332;-72
2023/05/23 10:23:28;;;;;;;9.50;4.65;;;24.40;47.10;;;;;;6129055;28;80681;-72
2023/05/23 10:26:29;;;;;;;6.90;4.35;;;24.50;47.30;;;;;;6125944;28;81651;-70
2023/05/23 10:29:29;;;;;;;8.60;4.88;;;24.50;47.20;;;;;;6120664;28;81797;-71
2023/05/23 10:32:30;;;;;;;7.97;4.38;;;24.50;47.00;;;;;;6130161;28;80718;-71
2023/05/23 10:35:30;;;;;;;7.55;4.47;;;24.50;46.90;;;;;;6117161;28;80607;-70
2023/05/23 10:38:31;;;;;;;8.05;4.57;;;24.50;46.70;;;;;;6129092;28;80469;-71
2023/05/23 10:41:31;;;;;;;9.50;4.70;;;24.50;46.50;;;;;;6128654;28;80837;-71
2023/05/23 10:44:32;;;;;;;12.82;5.13;;;24.50;46.40;;;;;;6118930;28;81745;-71
2023/05/23 10:47:33;;;;;;;8.55;5.00;;;24.50;46.30;;;;;;6121965;28;80500;-70
2023/05/23 10:50:34;;;;;;;9.95;4.15;;;24.60;46.20;;;;;;6127322;28;80380;-71
2023/05/23 10:53:34;;;;;;;6.15;4.20;;;24.50;46.10;;;;;;6128748;28;80636;-70
2023/05/23 10:56:35;;;;;;;8.07;4.55;;;24.60;46.20;;;;;;6129623;28;80410;-70
2023/05/23 10:59:36;;;;;;;8.57;4.82;;;24.60;46.10;;;;;;6126070;28;83875;-71
2023/05/23 11:02:36;;;;;;;6.03;4.20;;;24.60;46.20;;;;;;6105591;28;81171;-71
2023/05/23 11:05:42;;;;;;;6.90;4.85;;;24.60;46.30;;;;;;6121481;28;80348;-70
2023/05/23 11:08:44;;;;;;;5.70;3.95;;;24.60;46.20;;;;;;6123015;28;81158;-72
2023/05/23 11:11:45;;;;;;;8.23;4.60;;;24.60;46.00;;;;;;6104868;28;81406;-72
2023/05/23 11:14:45;;;;;;;8.70;4.10;;;24.60;45.90;;;;;;6115367;28;81167;-71
2023/05/23 11:17:46;;;;;;;7.55;4.65;;;24.60;45.80;;;;;;6115163;28;80882;-71
2023/05/23 11:20:46;;;;;;;9.68;4.15;;;24.60;45.60;;;;;;6136010;28;80210;-72
2023/05/23 11:23:47;;;;;;;7.22;4.70;;;24.70;45.60;;;;;;6117313;28;84317;-70
2023/05/23 11:26:47;;;;;;;7.18;3.92;;;24.70;45.50;;;;;;6104337;28;80997;-70
2023/05/23 11:29:48;;;;;;;7.57;3.78;;;24.70;45.60;;;;;;6112064;28;80465;-72
2023/05/23 11:32:48;;;;;;;6.10;4.13;;;24.70;45.20;;;;;;6112915;28;80521;-70
2023/05/23 11:35:50;;;;;;;5.93;3.70;;;24.70;45.00;;;;;;6116419;28;80637;-71
2023/05/23 11:38:51;;;;;;;7.22;4.15;;;24.70;45.10;;;;;;6127824;28;80445;-70
2023/05/23 11:41:51;;;;;;;7.22;4.22;;;24.70;45.10;;;;;;6126914;28;80522;-73
2023/05/23 11:44:52;;;;;;;9.40;4.25;;;24.70;45.10;;;;;;6126106;28;81411;-70
2023/05/23 11:47:53;;;;;;;10.02;4.05;;;24.70;44.60;;;;;;6127168;28;82539;-70
2023/05/23 11:50:53;;;;;;;9.25;3.88;;;24.70;44.60;;;;;;6132359;28;80584;-71
2023/05/23 11:53:54;;;;;;;8.60;3.63;;;24.70;44.50;;;;;;6127880;28;80426;-69
2023/05/23 11:56:54;;;;;;;10.35;4.00;;;24.70;44.40;;;;;;6126485;28;80526;-71
2023/05/23 11:59:55;;;;;;;5.00;3.70;;;24.70;44.30;;;;;;6127984;28;80715;-71
2023/05/23 12:02:56;;;;;;;6.05;3.35;;;24.80;44.40;;;;;;6126784;28;80791;-72
2023/05/23 12:05:56;;;;;;;9.60;4.50;;;24.70;44.10;;;;;;6120491;28;81548;-69
2023/05/23 12:08:57;;;;;;;8.68;3.80;;;24.80;44.00;;;;;;6128580;28;81010;-72
2023/05/23 12:11:57;;;;;;;8.15;3.78;;;24.70;43.60;;;;;;6139116;28;82698;-72
2023/05/23 12:14:58;;;;;;;8.90;4.22;;;24.70;43.40;;;;;;6133082;28;81069;-60
2023/05/23 12:17:58;;;;;;;10.05;4.18;;;24.70;43.10;;;;;;6113193;28;80477;-61
2023/05/23 12:20:59;;;;;;;7.90;4.68;;;24.70;43.00;;;;;;6107487;28;80316;-60
2023/05/23 12:23:59;;;;;;;5.20;3.78;;;24.80;42.70;;;;;;6108106;28;80544;-61
2023/05/23 12:27:00;;;;;;;6.45;3.70;;;24.80;41.90;;;;;;6115484;28;81652;-60
2023/05/23 12:30:00;;;;;;;6.97;4.65;;;24.70;41.60;;;;;;6121137;28;80584;-61
2023/05/23 12:33:01;;;;;;;7.10;3.58;;;24.80;41.60;;;;;;6113961;28;80439;-61
2023/05/23 12:36:01;;;;;;;8.38;3.85;;;24.80;41.80;;;;;;6108266;28;80634;-60
2023/05/23 12:39:02;;;;;;;7.88;3.53;;;24.80;41.60;;;;;;6107796;28;80296;-60
2023/05/23 12:42:02;;;;;;;6.88;3.63;;;24.80;41.80;;;;;;6120795;28;82134;-60
2023/05/23 12:45:03;;;;;;;6.32;3.58;;;24.80;42.00;;;;;;6111259;28;80383;-61
2023/05/23 12:48:03;;;;;;;7.55;3.70;;;24.80;42.20;;;;;;6107255;28;80428;-60
2023/05/23 12:51:04;;;;;;;6.90;4.25;;;24.80;42.30;;;;;;6107463;28;80908;-59
2023/05/23 12:54:05;;;;;;;7.68;4.22;;;24.80;42.40;;;;;;6108125;28;80074;-59
2023/05/23 12:57:05;;;;;;;8.45;4.53;;;24.80;42.50;;;;;;6108076;28;80460;-62
2023/05/23 13:00:07;;;;;;;7.65;3.75;;;24.80;42.60;;;;;;6124625;28;80848;-60
2023/05/23 13:03:07;;;;;;;8.00;4.10;;;24.80;42.70;;;;;;6128499;28;80550;-59
2023/05/23 13:06:08;;;;;;;8.32;4.22;;;24.90;42.80;;;;;;6130387;28;80504;-60
2023/05/23 13:09:09;;;;;;;9.13;4.43;;;24.80;42.80;;;;;;6130223;28;80506;-62
2023/05/23 13:12:09;;;;;;;10.20;4.40;;;24.80;42.90;;;;;;6129118;28;80508;-60
2023/05/23 13:15:11;;;;;;;9.93;3.83;;;24.80;43.10;;;;;;6109526;28;80415;-57
2023/05/23 13:18:12;;;;;;;7.60;5.00;;;24.80;43.40;;;;;;6120349;28;80396;-60
2023/05/23 13:21:12;;;;;;;12.18;4.50;;;24.80;43.80;;;;;;6127468;28;80634;-60
2023/05/23 13:24:13;;;;;;;13.02;4.93;;;24.80;44.10;;;;;;6120159;28;80566;-60
2023/05/23 13:27:13;;;;;;;12.18;4.30;;;24.80;44.30;;;;;;6113178;28;80968;-59
2023/05/23 13:30:14;;;;;;;41.78;20.88;;;24.80;45.10;;;;;;6124499;28;81224;-58
2023/05/23 13:33:14;;;;;;;77.57;35.20;;;24.90;45.60;;;;;;6122032;28;86520;-58
2023/05/23 13:36:15;;;;;;;133.52;63.53;;;24.90;45.80;;;;;;6117103;28;83463;-57
2023/05/23 13:39:16;;;;;;;158.90;79.43;;;24.90;45.90;;;;;;6111215;28;82996;-59
2023/05/23 13:42:16;;;;;;;150.10;71.25;;;24.90;45.90;;;;;;6110958;28;83687;-59
2023/05/23 13:45:17;;;;;;;122.82;61.15;;;25.00;45.90;;;;;;6118838;28;84951;-58
2023/05/23 13:48:17;;;;;;;112.68;55.45;;;25.00;46.10;;;;;;6122153;28;84362;-69
2023/05/23 13:51:18;;;;;;;80.75;34.97;;;25.00;46.20;;;;;;6113777;28;83778;-71
2023/05/23 13:54:18;;;;;;;63.92;29.75;;;25.00;46.30;;;;;;6112435;28;84721;-71
2023/05/23 13:57:19;;;;;;;54.20;24.73;;;25.00;46.10;;;;;;6107441;28;83324;-73
2023/05/23 14:00:19;;;;;;;39.85;18.98;;;25.10;46.10;;;;;;6123442;28;83285;-77
2023/05/23 14:03:20;;;;;;;38.20;16.60;;;25.10;45.90;;;;;;6105307;28;84220;-78
2023/05/23 14:06:20;;;;;;;33.25;15.77;;;25.10;46.10;;;;;;6129522;28;83246;-65
2023/05/23 14:09:21;;;;;;;28.67;15.43;;;25.10;46.30;;;;;;6111355;28;82893;-64
2023/05/23 14:12:21;;;;;;;27.23;13.52;;;25.10;46.60;;;;;;6119321;28;83885;-64
2023/05/23 14:15:22;;;;;;;34.75;12.95;;;25.10;46.60;;;;;;6123088;28;84329;-64
2023/05/23 14:18:22;;;;;;;29.45;13.77;;;25.10;46.60;;;;;;6120782;28;83154;-64
2023/05/23 14:21:23;;;;;;;26.13;11.65;;;25.10;46.80;;;;;;6118986;28;83989;-66
2023/05/23 14:24:23;;;;;;;25.23;12.10;;;25.10;46.80;;;;;;6119545;28;83573;-65
2023/05/23 14:27:24;;;;;;;22.42;11.57;;;25.10;47.00;;;;;;6127384;28;82797;-65
2023/05/23 14:30:24;;;;;;;16.15;9.55;;;25.10;47.10;;;;;;6131488;28;84092;-63
2023/05/23 14:33:25;;;;;;;14.07;7.78;;;25.00;46.90;;;;;;6122703;28;81782;-64
2023/05/23 14:36:25;;;;;;;12.68;6.70;;;25.00;45.90;;;;;;6124042;28;80509;-62
2023/05/23 14:39:27;;;;;;;16.05;6.88;;;24.90;45.50;;;;;;6124792;28;80710;-65
2023/05/23 14:42:28;;;;;;;11.00;5.38;;;24.90;45.50;;;;;;6122347;28;80134;-58
2023/05/23 14:45:29;;;;;;;14.20;6.32;;;24.90;45.20;;;;;;6120456;28;81385;-59
2023/05/23 14:48:30;;;;;;;12.65;6.15;;;24.90;45.10;;;;;;6128700;28;80893;-59
2023/05/23 14:51:31;;;;;;;13.88;6.00;;;24.90;45.40;;;;;;6122920;28;81218;-58
2023/05/23 14:54:33;;;;;;;10.93;6.00;;;24.90;45.80;;;;;;6120601;28;80851;-59
2023/05/23 14:57:33;;;;;;;12.00;6.35;;;24.90;45.80;;;;;;6124629;28;80362;-59
2023/05/23 15:00:34;;;;;;;13.10;5.80;;;24.90;46.30;;;;;;6125234;28;80952;-58
2023/05/23 15:03:34;;;;;;;10.48;5.30;;;24.90;46.50;;;;;;6126160;28;80637;-58
2023/05/23 15:06:35;;;;;;;8.52;5.70;;;24.90;46.60;;;;;;6116230;28;80796;-61
2023/05/23 15:09:36;;;;;;;17.30;6.28;;;24.90;46.90;;;;;;6112740;28;83413;-59
2023/05/23 15:12:37;;;;;;;14.75;5.97;;;24.90;47.20;;;;;;6123096;28;81110;-58
2023/05/23 15:15:39;;;;;;;14.00;6.03;;;24.90;47.60;;;;;;6111760;28;84628;-61
2023/05/23 15:18:39;;;;;;;12.45;6.38;;;24.80;48.30;;;;;;6110553;28;80600;-60
2023/05/23 15:21:40;;;;;;;12.48;6.25;;;24.80;48.70;;;;;;6112012;28;80918;-60
2023/05/23 15:24:41;;;;;;;10.27;6.00;;;24.80;49.00;;;;;;6106861;28;80189;-60
2023/05/23 15:27:43;;;;;;;11.02;5.75;;;24.80;49.30;;;;;;6108959;28;80368;-61
2023/05/23 15:30:44;;;;;;;15.07;6.43;;;24.80;49.40;;;;;;6105146;28;80454;-59
2023/05/23 15:33:44;;;;;;;12.57;7.07;;;24.80;49.90;;;;;;6123480;28;80612;-61
2023/05/23 15:36:45;;;;;;;9.35;5.72;;;24.80;50.30;;;;;;6120176;28;80678;-60